Time;durP1;ratioP1;P1;durP2;ratioP2;P2;SDS_P1;SDS_P2;PMS_P1;PMS_P2;Temp;Humidity;BMP_temperature;BMP_pressure;BME280_temperature;BME280_humidity;BME280_pressure;Samples;Min_cycle;Max_cycle;Signal;HPM_P1;HPM_P2
2023/12/08 00:00:45;;;;;;;6.43;3.90;;;;;;;5.67;100.00;100115.75;5087553;28;20403;-79
2023/12/08 00:03:11;;;;;;;6.57;3.85;;;;;;;5.67;100.00;100107.81;5072362;28;20485;-80
2023/12/08 00:05:36;;;;;;;6.70;3.78;;;;;;;5.61;100.00;100109.38;5067263;28;20031;-79
2023/12/08 00:08:02;;;;;;;7.90;4.57;;;;;;;5.46;100.00;100100.66;5049169;28;20025;-79
2023/12/08 00:10:27;;;;;;;7.28;4.22;;;;;;;5.58;100.00;100115.06;5067313;28;20021;-79
2023/12/08 00:12:52;;;;;;;6.60;4.15;;;;;;;5.67;100.00;100097.25;5077554;28;20615;-78
2023/12/08 00:15:18;;;;;;;7.32;3.90;;;;;;;5.61;100.00;100125.25;5087540;28;20030;-78
2023/12/08 00:17:43;;;;;;;6.80;4.20;;;;;;;5.29;100.00;100088.63;5087565;28;20107;-80
2023/12/08 00:20:10;;;;;;;7.03;4.05;;;;;;;5.26;100.00;100102.22;5087321;28;20034;-79
2023/12/08 00:22:35;;;;;;;6.10;3.42;;;;;;;5.27;100.00;100111.78;5087320;28;20036;-80
2023/12/08 00:25:00;;;;;;;6.68;3.65;;;;;;;5.28;100.00;100108.97;5087212;28;20679;-80
2023/12/08 00:27:26;;;;;;;5.65;3.70;;;;;;;5.21;100.00;100113.31;5087122;28;20028;-80
2023/12/08 00:29:51;;;;;;;6.32;3.88;;;;;;;5.13;100.00;100122.19;5068547;28;20056;-79
2023/12/08 00:32:16;;;;;;;6.20;3.65;;;;;;;4.81;100.00;100100.38;5087132;28;20052;-80
2023/12/08 00:34:42;;;;;;;6.20;3.22;;;;;;;4.88;100.00;100089.06;5087314;28;20031;-80
2023/12/08 00:37:08;;;;;;;6.47;3.65;;;;;;;5.14;100.00;100109.78;5087100;28;20078;-81
2023/12/08 00:39:33;;;;;;;6.32;3.95;;;;;;;5.24;100.00;100119.06;5087085;28;20463;-80
2023/12/08 00:41:59;;;;;;;6.15;4.10;;;;;;;5.06;100.00;100123.09;5085202;28;20088;-79
2023/12/08 00:44:24;;;;;;;6.00;3.60;;;;;;;4.94;100.00;100117.41;5086599;28;20028;-84
2023/12/08 00:46:50;;;;;;;5.65;3.28;;;;;;;4.69;100.00;100083.31;5068922;28;20058;-80
2023/12/08 00:49:15;;;;;;;6.95;4.20;;;;;;;5.19;100.00;100145.25;5086629;28;20523;-80
2023/12/08 00:51:41;;;;;;;5.65;3.78;;;;;;;5.03;100.00;100132.22;5078901;28;20081;-82
2023/12/08 00:54:07;;;;;;;6.43;3.78;;;;;;;5.12;100.00;100128.47;5054866;28;20131;-79
2023/12/08 00:56:32;;;;;;;7.80;3.70;;;;;;;4.85;100.00;100134.38;5073207;28;20123;-78
2023/12/08 00:58:57;;;;;;;6.43;3.85;;;;;;;4.97;100.00;100139.03;5073206;28;20055;-79
2023/12/08 01:01:23;;;;;;;5.80;3.13;;;;;;;5.01;100.00;100134.22;5073168;28;20473;-80
2023/12/08 01:03:48;;;;;;;6.28;3.55;;;;;;;4.87;100.00;100140.31;5072611;28;20029;-79
2023/12/08 01:06:14;;;;;;;7.97;3.58;;;;;;;4.83;100.00;100126.63;5054985;28;20039;-79
2023/12/08 01:08:39;;;;;;;7.07;4.00;;;;;;;4.85;100.00;100118.53;5054914;28;20031;-79
2023/12/08 01:11:06;;;;;;;9.18;4.20;;;;;;;4.72;100.00;100119.97;5073115;28;20516;-80
2023/12/08 01:13:31;;;;;;;7.15;4.00;;;;;;;4.83;100.00;100130.06;5072705;28;20031;-81
2023/12/08 01:15:57;;;;;;;7.32;4.10;;;;;;;5.02;100.00;100143.78;5072571;28;20029;-79
2023/12/08 01:18:22;;;;;;;6.30;3.55;;;;;;;4.98;100.00;100108.13;5072504;28;20036;-80
2023/12/08 01:20:48;;;;;;;6.45;4.18;;;;;;;5.18;100.00;100134.84;5072544;28;20032;-80
2023/12/08 01:23:13;;;;;;;7.75;4.45;;;;;;;5.09;100.00;100135.94;5072198;28;20036;-80
2023/12/08 01:25:38;;;;;;;7.53;4.60;;;;;;;5.12;100.00;100140.88;5072479;28;20170;-80
2023/12/08 01:28:04;;;;;;;7.45;4.10;;;;;;;5.03;100.00;100111.88;5072386;28;20108;-79
2023/12/08 01:30:29;;;;;;;8.07;4.50;;;;;;;5.29;100.00;100141.50;5072536;28;20036;-78
2023/12/08 01:32:55;;;;;;;7.30;4.55;;;;;;;5.11;100.00;100134.78;5071054;28;20046;-80
2023/12/08 01:35:20;;;;;;;7.35;4.28;;;;;;;5.06;100.00;100115.97;5072054;28;20039;-79
2023/12/08 01:37:45;;;;;;;8.50;4.40;;;;;;;4.82;100.00;100101.19;5072335;28;20108;-79
2023/12/08 01:40:11;;;;;;;7.40;4.10;;;;;;;4.80;100.00;100121.69;5072481;28;20039;-79
2023/12/08 01:42:37;;;;;;;8.65;4.90;;;;;;;4.90;100.00;100132.00;5070388;28;20082;-80
2023/12/08 01:45:03;;;;;;;7.55;5.07;;;;;;;4.79;100.00;100126.16;5072205;28;20518;-80
2023/12/08 01:47:30;;;;;;;7.63;4.57;;;;;;;4.74;100.00;100111.84;5072271;28;20025;-79
2023/12/08 01:49:56;;;;;;;8.45;4.70;;;;;;;4.93;100.00;100132.47;5054507;28;20039;-79
2023/12/08 01:52:23;;;;;;;7.43;4.57;;;;;;;5.02;100.00;100146.41;5070209;28;20036;-79
2023/12/08 01:54:56;;;;;;;8.70;5.47;;;;;;;4.86;100.00;100122.78;5052526;28;20036;-80
2023/12/08 01:57:22;;;;;;;7.60;4.43;;;;;;;4.68;100.00;100104.63;5051721;28;20025;-79
2023/12/08 01:59:50;;;;;;;8.63;5.22;;;;;;;4.79;100.00;100126.16;5034239;28;20032;-78
2023/12/08 02:02:16;;;;;;;12.55;6.22;;;;;;;5.09;100.00;100136.78;5051352;28;20029;-79
2023/12/08 02:04:44;;;;;;;8.77;5.10;;;;;;;5.06;100.00;100149.53;5051059;28;20029;-79
2023/12/08 02:07:10;;;;;;;9.02;5.10;;;;;;;5.03;100.00;100134.84;5051937;28;20113;-78
2023/12/08 02:09:36;;;;;;;13.07;7.40;;;;;;;4.97;100.00;100109.16;5051734;28;20059;-79
2023/12/08 02:12:02;;;;;;;15.20;7.80;;;;;;;5.07;100.00;100111.50;5051563;28;20059;-79
2023/12/08 02:14:27;;;;;;;12.15;6.70;;;;;;;4.92;100.00;100111.50;5051389;28;20093;-79
2023/12/08 02:16:55;;;;;;;10.73;6.07;;;;;;;5.01;100.00;100135.03;5051463;28;20090;-80
2023/12/08 02:19:21;;;;;;;13.02;7.72;;;;;;;4.89;100.00;100088.91;5051738;28;20053;-79
2023/12/08 02:21:46;;;;;;;11.10;6.32;;;;;;;4.93;100.00;100099.94;5051528;28;20178;-79
2023/12/08 02:24:12;;;;;;;10.50;6.15;;;;;;;5.07;100.00;100117.63;5066554;28;20108;-80
2023/12/08 02:26:37;;;;;;;12.02;6.22;;;;;;;5.02;100.00;100109.41;5053756;28;20404;-80
2023/12/08 02:29:07;;;;;;;17.52;9.13;;;;;;;4.91;100.00;100089.53;5071239;28;20563;-79
2023/12/08 02:31:41;;;;;;;10.07;6.13;;;;;;;4.98;100.00;100121.34;5071369;28;20024;-80
2023/12/08 02:34:08;;;;;;;14.63;8.07;;;;;;;4.81;100.00;100075.78;5070368;28;20072;-79
2023/12/08 02:36:35;;;;;;;12.27;6.57;;;;;;;5.17;100.00;100123.47;5071170;28;20035;-80
2023/12/08 02:39:01;;;;;;;20.05;9.48;;;;;;;5.04;100.00;100123.25;5071255;28;20027;-78
2023/12/08 02:41:27;;;;;;;15.65;8.10;;;;;;;5.05;100.00;100140.78;5071237;28;20051;-79
2023/12/08 02:43:52;;;;;;;21.58;10.15;;;;;;;5.08;100.00;100123.72;5053398;28;20032;-80
2023/12/08 02:46:17;;;;;;;11.90;6.63;;;;;;;4.80;100.00;100101.38;5071106;28;20029;-79
2023/12/08 02:48:43;;;;;;;13.82;7.35;;;;;;;4.81;100.00;100103.00;5074543;28;20025;-79
2023/12/08 02:51:08;;;;;;;22.50;10.10;;;;;;;5.10;100.00;100135.75;5064777;28;20032;-81
2023/12/08 02:53:34;;;;;;;20.27;10.32;;;;;;;5.08;100.00;100129.00;5081936;28;20028;-80
2023/12/08 02:55:59;;;;;;;16.80;8.20;;;;;;;5.11;100.00;100131.28;5082379;28;20040;-81
2023/12/08 02:58:24;;;;;;;17.88;8.88;;;;;;;5.23;100.00;100138.59;5081662;28;20021;-80
2023/12/08 03:00:50;;;;;;;14.93;7.97;;;;;;;5.06;100.00;100115.16;5065256;28;20028;-80
2023/12/08 03:03:15;;;;;;;12.45;7.55;;;;;;;5.09;100.00;100128.00;5063982;28;20036;-83
2023/12/08 03:05:40;;;;;;;12.85;7.05;;;;;;;5.20;100.00;100133.66;5082281;28;20029;-81
2023/12/08 03:08:06;;;;;;;12.55;8.00;;;;;;;5.16;100.00;100128.94;5081916;28;20044;-79
2023/12/08 03:10:31;;;;;;;13.43;7.28;;;;;;;4.96;100.00;100103.03;5079195;28;20546;-78
2023/12/08 03:12:57;;;;;;;12.65;6.70;;;;;;;5.14;100.00;100136.22;5059665;28;20036;-81
2023/12/08 03:15:23;;;;;;;14.25;7.20;;;;;;;5.00;100.00;100137.84;5040974;28;20021;-78
2023/12/08 03:17:48;;;;;;;15.20;7.53;;;;;;;5.01;100.00;100135.03;5058865;28;20085;-79
2023/12/08 03:20:14;;;;;;;16.02;8.70;;;;;;;5.00;100.00;100111.41;5057619;28;20051;-78
2023/12/08 03:22:39;;;;;;;14.50;8.07;;;;;;;4.80;100.00;100096.09;5058184;28;20028;-79
2023/12/08 03:25:04;;;;;;;12.90;7.13;;;;;;;4.83;100.00;100114.22;5059677;28;20144;-84
2023/12/08 03:27:30;;;;;;;11.52;7.32;;;;;;;4.90;100.00;100130.16;5062391;28;20089;-80
2023/12/08 03:29:55;;;;;;;11.63;6.85;;;;;;;4.80;100.00;100084.69;5061083;28;20036;-80
2023/12/08 03:32:21;;;;;;;11.55;7.25;;;;;;;4.99;100.00;100109.78;5058666;28;20036;-78
2023/12/08 03:34:46;;;;;;;12.20;7.13;;;;;;;5.04;100.00;100144.41;5070868;28;20488;-80
2023/12/08 03:37:11;;;;;;;10.65;6.38;;;;;;;4.96;100.00;100144.50;5072571;28;20094;-80
2023/12/08 03:39:37;;;;;;;11.75;7.05;;;;;;;4.70;100.00;100095.53;5071446;28;20048;-77
2023/12/08 03:42:03;;;;;;;11.93;6.75;;;;;;;4.86;100.00;100120.97;5071264;28;20047;-79
2023/12/08 03:44:28;;;;;;;11.95;7.35;;;;;;;4.93;100.00;100127.19;5069644;28;20430;-78
2023/12/08 03:46:53;;;;;;;11.75;7.20;;;;;;;5.00;100.00;100154.50;5053018;28;20067;-78
2023/12/08 03:49:19;;;;;;;10.45;6.38;;;;;;;4.95;100.00;100130.47;5070824;28;20025;-79
2023/12/08 03:51:44;;;;;;;13.90;7.75;;;;;;;4.84;100.00;100101.81;5070485;28;20029;-80
2023/12/08 03:54:09;;;;;;;13.10;7.80;;;;;;;5.21;100.00;100151.19;5068746;28;20078;-78
2023/12/08 03:56:35;;;;;;;12.98;7.95;;;;;;;4.79;100.00;100126.16;5070364;28;20086;-78
2023/12/08 03:59:00;;;;;;;13.93;7.95;;;;;;;4.90;100.00;100126.72;5052169;28;20025;-79
2023/12/08 04:01:26;;;;;;;11.85;6.93;;;;;;;4.94;100.00;100118.25;5070012;28;20085;-79
2023/12/08 04:03:51;;;;;;;12.07;7.32;;;;;;;4.99;100.00;100136.22;5068776;28;20028;-78
2023/12/08 04:06:17;;;;;;;12.15;6.93;;;;;;;4.97;100.00;100138.22;5070066;28;20039;-78
2023/12/08 04:08:42;;;;;;;12.65;7.68;;;;;;;4.89;100.00;100125.09;5070396;28;20021;-78
2023/12/08 04:11:07;;;;;;;13.43;7.60;;;;;;;5.22;100.00;100149.34;5070019;28;20025;-79
2023/12/08 04:13:33;;;;;;;12.18;7.13;;;;;;;4.80;100.00;100106.66;5068911;28;20048;-79
2023/12/08 04:15:58;;;;;;;13.90;8.75;;;;;;;4.78;100.00;100086.69;5070129;28;20120;-83
2023/12/08 04:18:24;;;;;;;13.55;8.35;;;;;;;4.91;100.00;100107.22;5070058;28;20723;-78
2023/12/08 04:20:49;;;;;;;13.45;7.68;;;;;;;5.17;100.00;100146.41;5069447;28;20028;-79
2023/12/08 04:23:14;;;;;;;14.15;7.78;;;;;;;5.22;100.00;100146.72;5070317;28;20414;-80
2023/12/08 04:25:40;;;;;;;14.07;7.50;;;;;;;5.18;100.00;100156.81;5051952;28;20111;-79
2023/12/08 04:28:05;;;;;;;13.82;7.93;;;;;;;5.03;100.00;100137.50;5073751;28;20028;-79
2023/12/08 04:30:31;;;;;;;13.13;7.72;;;;;;;5.21;100.00;100151.19;5073645;28;20098;-79
2023/12/08 04:32:56;;;;;;;12.93;7.57;;;;;;;5.26;100.00;100157.75;5073641;28;20099;-79
2023/12/08 04:35:22;;;;;;;13.57;7.97;;;;;;;5.27;100.00;100162.88;5072392;28;20481;-79
2023/12/08 04:37:48;;;;;;;13.38;8.10;;;;;;;5.22;100.00;100160.75;5055329;28;20107;-79
2023/12/08 04:40:14;;;;;;;15.82;8.15;;;;;;;5.27;100.00;100169.94;5055433;28;20044;-78
2023/12/08 04:42:39;;;;;;;13.18;7.72;;;;;;;4.97;100.00;100154.06;5073447;28;20048;-79
2023/12/08 04:45:06;;;;;;;13.50;8.20;;;;;;;5.16;100.00;100142.97;5072976;28;20024;-79
2023/12/08 04:47:31;;;;;;;14.20;8.40;;;;;;;5.10;100.00;100146.34;5073089;28;20103;-79
2023/12/08 04:49:57;;;;;;;14.45;8.82;;;;;;;5.13;100.00;100164.50;5073094;28;20116;-79
2023/12/08 04:52:22;;;;;;;14.00;8.23;;;;;;;5.07;100.00;100154.63;5072687;28;20032;-79
2023/12/08 04:54:48;;;;;;;14.75;9.10;;;;;;;5.14;100.00;100155.53;5072716;28;20045;-79
2023/12/08 04:57:13;;;;;;;15.20;8.40;;;;;;;5.06;100.00;100142.41;5073051;28;20558;-79
2023/12/08 04:59:39;;;;;;;13.43;8.10;;;;;;;5.19;100.00;100169.06;5054978;28;20021;-78
2023/12/08 05:02:05;;;;;;;14.75;8.43;;;;;;;4.95;100.00;100145.50;5072990;28;20029;-78
2023/12/08 05:04:30;;;;;;;16.83;9.10;;;;;;;5.16;100.00;100144.78;5054348;28;20029;-78
2023/12/08 05:06:55;;;;;;;13.75;8.88;;;;;;;5.01;100.00;100139.50;5073474;28;20036;-78
2023/12/08 05:09:21;;;;;;;14.18;8.77;;;;;;;4.96;100.00;100134.72;5072759;28;20116;-78
2023/12/08 05:11:46;;;;;;;14.73;8.63;;;;;;;5.08;100.00;100161.56;5072581;28;20082;-78
2023/12/08 05:14:12;;;;;;;18.90;10.68;;;;;;;4.96;100.00;100141.84;5071917;28;20048;-78
2023/12/08 05:16:37;;;;;;;22.90;12.90;;;;;;;4.94;100.00;100154.41;5072130;28;20024;-78
2023/12/08 05:19:03;;;;;;;23.52;12.95;;;;;;;4.94;100.00;100149.13;5071774;28;20047;-79
2023/12/08 05:21:28;;;;;;;22.38;14.68;;;;;;;4.82;100.00;100125.81;5072251;28;20503;-79
2023/12/08 05:23:54;;;;;;;54.42;48.83;;;;;;;4.69;100.00;100128.22;5066801;28;20031;-78
2023/12/08 05:26:20;;;;;;;51.80;43.70;;;;;;;4.80;100.00;100143.66;5052726;28;20024;-78
2023/12/08 05:28:45;;;;;;;38.60;31.40;;;;;;;5.05;100.00;100169.84;5034685;28;20568;-78
2023/12/08 05:31:11;;;;;;;27.67;21.40;;;;;;;5.14;100.00;100160.81;5052036;28;20029;-77
2023/12/08 05:33:36;;;;;;;20.75;16.17;;;;;;;5.20;100.00;100173.31;5035567;28;20105;-78
2023/12/08 05:36:02;;;;;;;18.33;12.15;;;;;;;5.22;100.00;100173.97;5054314;28;20039;-80
2023/12/08 05:38:28;;;;;;;24.65;16.63;;;;;;;5.02;100.00;100134.00;5071812;28;20446;-79
2023/12/08 05:40:53;;;;;;;26.73;20.42;;;;;;;5.30;100.00;100174.91;5071742;28;20052;-79
2023/12/08 05:43:19;;;;;;;20.05;14.77;;;;;;;5.42;100.00;100187.47;5054126;28;20025;-79
2023/12/08 05:45:44;;;;;;;21.42;14.63;;;;;;;5.11;100.00;100150.63;5051933;28;20116;-78
2023/12/08 05:48:09;;;;;;;20.05;13.05;;;;;;;5.34;100.00;100165.59;5033987;28;20370;-78
2023/12/08 05:50:35;;;;;;;19.58;14.35;;;;;;;5.53;100.00;100180.91;5034324;28;20036;-79
2023/12/08 05:53:00;;;;;;;21.77;16.95;;;;;;;5.39;100.00;100179.06;5033867;28;20104;-79
2023/12/08 05:55:25;;;;;;;25.23;18.67;;;;;;;5.52;100.00;100203.09;5067133;28;20028;-79
2023/12/08 05:57:51;;;;;;;24.35;16.05;;;;;;;5.43;100.00;100172.41;5053813;28;20439;-79
2023/12/08 06:00:18;;;;;;;24.60;15.98;;;;;;;5.61;100.00;100199.31;5071673;28;20059;-82
2023/12/08 06:02:44;;;;;;;27.95;17.30;;;;;;;5.63;100.00;100186.72;5071990;28;20027;-78
2023/12/08 06:05:11;;;;;;;32.85;18.20;;;;;;;5.26;100.00;100147.19;5053361;28;20051;-78
2023/12/08 06:07:37;;;;;;;28.55;18.63;;;;;;;5.60;100.00;100181.81;5071879;28;20064;-79
2023/12/08 06:10:03;;;;;;;23.98;14.27;;;;;;;5.76;100.00;100179.97;5053744;28;20060;-79
2023/12/08 06:12:29;;;;;;;19.25;12.23;;;;;;;5.39;100.00;100157.91;5053711;28;20444;-81
2023/12/08 06:14:54;;;;;;;24.38;14.50;;;;;;;5.51;100.00;100166.22;5070416;28;20131;-79
2023/12/08 06:17:20;;;;;;;28.40;16.50;;;;;;;5.63;100.00;100165.56;5071424;28;20412;-78
2023/12/08 06:19:45;;;;;;;23.75;17.17;;;;;;;5.86;100.00;100196.38;5071144;28;20133;-78
2023/12/08 06:22:11;;;;;;;28.33;24.58;;;;;;;5.79;100.00;100201.59;5071038;28;20032;-78
2023/12/08 06:24:36;;;;;;;26.65;19.33;;;;;;;5.66;100.00;100195.31;5051709;28;20719;-78
2023/12/08 06:27:02;;;;;;;19.90;13.43;;;;;;;9.07;100.00;100199.16;5060491;28;20119;-78
2023/12/08 06:29:27;;;;;;;18.55;12.52;;;;;;;10.52;97.61;100228.22;5050430;28;20032;-79
2023/12/08 06:31:53;;;;;;;15.57;10.57;;;;;;;9.69;97.57;100202.34;5050285;28;20024;-78
2023/12/08 06:34:18;;;;;;;14.40;9.27;;;;;;;8.87;100.00;100202.66;5037203;28;20032;-78
2023/12/08 06:36:48;;;;;;;14.30;8.48;;;;;;;10.27;98.16;100231.63;5053470;28;20493;-79
2023/12/08 06:39:15;;;;;;;14.38;11.52;;;;;;;10.23;96.01;100230.41;5050750;28;20032;-79
2023/12/08 06:41:41;;;;;;;13.40;8.40;;;;;;;10.43;93.02;100241.00;5032477;28;20099;-80
2023/12/08 06:44:07;;;;;;;13.82;9.65;;;;;;;10.63;89.04;100235.56;5051563;28;20259;-79
2023/12/08 06:46:32;;;;;;;13.90;8.43;;;;;;;10.06;93.36;100246.06;5050211;28;20099;-81
2023/12/08 06:48:58;;;;;;;13.20;8.60;;;;;;;11.62;87.42;100236.56;5050140;28;21564;-79
2023/12/08 06:51:23;;;;;;;13.82;8.38;;;;;;;10.31;89.75;100232.84;5032398;28;20033;-79
2023/12/08 06:53:49;;;;;;;12.93;8.45;;;;;;;10.48;93.70;100237.69;5032891;28;20469;-78
2023/12/08 06:56:15;;;;;;;12.30;8.20;;;;;;;10.06;91.86;100252.22;5050369;28;20112;-78
2023/12/08 06:58:40;;;;;;;13.55;9.38;;;;;;;10.14;91.23;100247.69;5050403;28;20029;-79
2023/12/08 07:01:06;;;;;;;14.10;9.65;;;;;;;10.05;94.05;100255.91;5050253;28;20032;-78
2023/12/08 07:03:31;;;;;;;16.48;8.05;;;;;;;9.88;92.12;100254.72;5050183;28;20032;-78
2023/12/08 07:05:57;;;;;;;13.10;9.07;;;;;;;10.62;88.10;100213.41;5066086;28;20404;-78
2023/12/08 07:08:22;;;;;;;13.85;8.82;;;;;;;9.93;94.22;100241.63;5070135;28;20054;-77
2023/12/08 07:10:47;;;;;;;14.45;8.82;;;;;;;11.05;85.61;100267.88;5051810;28;20159;-79
2023/12/08 07:13:13;;;;;;;13.18;8.73;;;;;;;10.56;88.63;100258.78;5070041;28;20082;-79
2023/12/08 07:15:39;;;;;;;13.13;9.02;;;;;;;10.02;90.10;100256.31;5070392;28;20089;-80
2023/12/08 07:18:04;;;;;;;667.53;387.90;;;;;;;10.88;83.48;100270.28;5069920;28;20035;-77
2023/12/08 07:22:14;;;;;;;26.98;14.13;;;;;;;9.83;86.94;100230.59;5080012;22;1304768;-77
2023/12/08 07:24:40;;;;;;;16.63;10.43;;;;;;;10.32;88.56;100271.84;5114553;28;20039;-77
2023/12/08 07:27:06;;;;;;;33.85;19.25;;;;;;;10.05;89.53;100266.56;5089381;28;20396;-78
2023/12/08 07:29:31;;;;;;;42.92;24.35;;;;;;;10.09;92.33;100274.94;5106508;28;20032;-77
2023/12/08 07:31:56;;;;;;;23.10;15.35;;;;;;;9.84;90.42;100257.00;5106096;28;20024;-78
2023/12/08 07:34:22;;;;;;;18.52;11.93;;;;;;;9.38;87.74;100265.09;5124592;28;20069;-78
2023/12/08 07:36:48;;;;;;;21.20;14.93;;;;;;;8.56;92.83;100256.38;5109892;28;20023;-78
2023/12/08 07:39:14;;;;;;;24.13;16.20;;;;;;;8.45;96.81;100261.28;5128187;28;20031;-77
2023/12/08 07:41:39;;;;;;;30.27;19.15;;;;;;;9.45;95.43;100241.91;5127901;28;20027;-78
2023/12/08 07:44:05;;;;;;;27.52;16.50;;;;;;;8.71;92.64;100249.06;5112836;28;20036;-79
2023/12/08 07:46:30;;;;;;;26.17;16.02;;;;;;;8.51;97.52;100259.66;5089321;28;20063;-78
2023/12/08 07:48:56;;;;;;;25.80;14.50;;;;;;;9.25;97.79;100245.44;5107443;28;20067;-78
2023/12/08 07:51:21;;;;;;;22.90;14.15;;;;;;;9.02;96.31;100245.00;5107260;28;20035;-78
2023/12/08 07:53:46;;;;;;;17.55;12.55;;;;;;;10.41;91.85;100249.22;5117727;28;20031;-77
2023/12/08 07:56:13;;;;;;;20.33;13.07;;;;;;;9.58;92.06;100265.03;5109548;28;20031;-77
2023/12/08 07:58:39;;;;;;;21.95;13.55;;;;;;;9.54;97.28;100259.31;5127699;28;20114;-76
2023/12/08 08:01:05;;;;;;;20.23;13.35;;;;;;;9.91;92.42;100254.31;5114078;28;20107;-78
2023/12/08 08:03:30;;;;;;;16.85;11.38;;;;;;;9.79;87.77;100261.31;5113251;28;21130;-79
2023/12/08 08:05:55;;;;;;;18.17;11.55;;;;;;;9.73;93.11;100240.84;5109153;28;20035;-79
2023/12/08 08:08:21;;;;;;;17.40;11.48;;;;;;;9.16;91.69;100278.56;5127417;28;20019;-78
2023/12/08 08:10:47;;;;;;;17.42;10.90;;;;;;;8.83;94.89;100268.72;5127450;28;20024;-78
2023/12/08 08:13:12;;;;;;;17.70;11.88;;;;;;;8.74;96.94;100224.72;5125711;28;20080;-77
2023/12/08 08:15:38;;;;;;;17.77;12.38;;;;;;;8.33;97.16;100260.19;5127592;28;20368;-79
2023/12/08 08:18:03;;;;;;;22.45;13.40;;;;;;;8.92;93.54;100265.88;5108805;28;20100;-78
2023/12/08 08:20:29;;;;;;;20.42;13.15;;;;;;;8.30;100.00;100257.13;5127138;28;20444;-78
2023/12/08 08:22:54;;;;;;;18.88;11.80;;;;;;;8.89;94.26;100266.25;5125421;28;20071;-78
2023/12/08 08:25:20;;;;;;;18.98;12.68;;;;;;;8.60;100.00;100273.56;5107557;28;20119;-80
2023/12/08 08:27:45;;;;;;;27.52;16.67;;;;;;;9.11;94.73;100259.72;5106323;28;20396;-79
2023/12/08 08:30:11;;;;;;;29.23;16.85;;;;;;;8.69;99.54;100258.28;5106579;28;20032;-83
2023/12/08 08:32:36;;;;;;;21.77;13.25;;;;;;;8.17;96.93;100263.19;5079073;28;20130;-77
2023/12/08 08:35:02;;;;;;;24.33;14.55;;;;;;;8.32;100.00;100276.34;5109079;28;20024;-79
2023/12/08 08:37:28;;;;;;;25.58;16.02;;;;;;;8.78;100.00;100249.88;5113122;28;20062;-78
2023/12/08 08:39:54;;;;;;;22.55;13.50;;;;;;;9.21;100.00;100268.16;5094181;28;20066;-78
2023/12/08 08:42:19;;;;;;;23.20;14.13;;;;;;;9.32;90.38;100285.34;5113246;28;20032;-78
2023/12/08 08:44:45;;;;;;;36.60;20.63;;;;;;;9.38;91.52;100275.72;5092760;28;20031;-77
2023/12/08 08:47:12;;;;;;;51.42;30.52;;;;;;;8.67;100.00;100247.84;5113015;28;20035;-77
2023/12/08 08:49:37;;;;;;;24.15;14.48;;;;;;;9.07;93.41;100269.16;5112565;28;20026;-78
2023/12/08 08:52:03;;;;;;;35.75;20.67;;;;;;;8.40;100.00;100258.38;5113213;28;20024;-77
2023/12/08 08:54:29;;;;;;;22.25;13.38;;;;;;;9.40;93.39;100287.81;5111500;28;20023;-77
2023/12/08 08:56:55;;;;;;;27.75;16.00;;;;;;;9.70;88.81;100265.22;5112870;28;20032;-78
2023/12/08 08:59:20;;;;;;;19.13;11.95;;;;;;;9.10;85.26;100278.59;5094719;28;20075;-77
2023/12/08 09:01:46;;;;;;;20.90;13.07;;;;;;;9.86;88.45;100272.75;5112761;28;20032;-77
2023/12/08 09:05:19;;;;;;;22.27;13.50;;;;;;;9.78;92.86;100263.16;5073135;22;1357320;-78
2023/12/08 09:07:45;;;;;;;21.30;13.23;;;;;;;9.77;91.58;100253.53;5085465;28;20129;-80
2023/12/08 09:10:10;;;;;;;22.48;13.25;;;;;;;9.40;87.62;100289.66;5088800;28;20115;-79
2023/12/08 09:12:36;;;;;;;20.45;13.25;;;;;;;8.41;95.05;100265.34;5087560;28;20028;-79
2023/12/08 09:15:03;;;;;;;39.58;22.63;;;;;;;7.81;99.56;100261.59;5087290;28;20029;-78
2023/12/08 09:17:28;;;;;;;22.58;14.52;;;;;;;7.61;100.00;100253.50;5107264;28;20083;-79
2023/12/08 09:19:54;;;;;;;24.25;14.27;;;;;;;7.62;98.24;100274.56;5107360;28;20499;-79
2023/12/08 09:22:19;;;;;;;27.15;16.38;;;;;;;7.06;100.00;100257.78;5107673;28;20058;-80
2023/12/08 09:24:45;;;;;;;25.42;14.68;;;;;;;8.07;100.00;100262.72;5107900;28;20080;-80
2023/12/08 09:27:10;;;;;;;22.40;14.48;;;;;;;7.64;100.00;100245.97;5107752;28;20137;-80
2023/12/08 09:29:36;;;;;;;22.08;13.73;;;;;;;8.17;100.00;100239.28;5108023;28;20564;-80
2023/12/08 09:32:01;;;;;;;23.80;14.52;;;;;;;7.90;100.00;100247.13;5108127;28;20035;-79
2023/12/08 09:34:27;;;;;;;19.92;11.80;;;;;;;7.42;100.00;100244.41;5089578;28;20488;-79
2023/12/08 09:36:52;;;;;;;19.52;12.65;;;;;;;7.31;100.00;100205.13;5108273;28;20059;-81
2023/12/08 09:39:19;;;;;;;22.00;13.45;;;;;;;7.75;100.00;100227.88;5107930;28;20046;-80
2023/12/08 09:41:45;;;;;;;18.98;11.25;;;;;;;7.20;100.00;100240.97;5107999;28;20032;-80
2023/12/08 09:44:12;;;;;;;16.52;10.90;;;;;;;8.25;98.78;100250.56;5107303;28;20035;-80
2023/12/08 09:46:45;;;;;;;16.90;10.50;;;;;;;7.43;100.00;100238.88;5089440;28;20102;-79
2023/12/08 09:49:28;;;;;;;22.85;12.98;;;;;;;7.26;100.00;100203.06;5107310;28;20511;-79
2023/12/08 09:51:58;;;;;;;29.83;16.63;;;;;;;8.28;100.00;100217.47;5107570;28;20480;-79
2023/12/08 09:54:24;;;;;;;17.58;11.05;;;;;;;8.33;100.00;100236.25;5107625;28;20869;-79
2023/12/08 09:56:54;;;;;;;18.52;10.93;;;;;;;7.79;100.00;100235.22;5107767;28;20024;-80
2023/12/08 09:59:29;;;;;;;18.17;10.85;;;;;;;8.52;100.00;100234.72;5107373;28;20111;-79
2023/12/08 10:01:55;;;;;;;17.33;10.75;;;;;;;8.68;100.00;100222.06;5107336;28;20038;-80
2023/12/08 10:04:20;;;;;;;19.98;12.32;;;;;;;8.24;100.00;100205.59;5107311;28;20032;-80
2023/12/08 10:06:49;;;;;;;19.52;11.55;;;;;;;7.90;100.00;100227.72;5089246;28;20452;-78
2023/12/08 10:09:19;;;;;;;18.77;11.77;;;;;;;8.79;98.93;100229.47;5107445;28;20031;-79
2023/12/08 10:11:44;;;;;;;24.13;17.00;;;;;;;8.85;100.00;100223.31;5089361;28;20038;-80
2023/12/08 10:14:12;;;;;;;31.00;20.73;;;;;;;7.89;100.00;100226.91;5107256;28;20148;-82
2023/12/08 10:16:37;;;;;;;29.30;19.27;;;;;;;7.21;100.00;100189.56;5075319;28;20089;-79
2023/12/08 10:19:07;;;;;;;23.17;15.15;;;;;;;7.09;100.00;100225.56;5087953;28;20040;-79
2023/12/08 10:21:34;;;;;;;23.88;13.32;;;;;;;6.58;100.00;100208.03;5077490;28;20025;-79
2023/12/08 10:24:00;;;;;;;18.30;11.02;;;;;;;5.89;100.00;100180.16;5084845;28;20056;-80
2023/12/08 10:26:26;;;;;;;18.67;11.85;;;;;;;5.94;100.00;100214.81;5086764;28;20557;-78
2023/12/08 10:28:55;;;;;;;19.48;11.48;;;;;;;6.22;100.00;100214.16;5083686;28;20062;-81
2023/12/08 10:31:21;;;;;;;18.30;10.45;;;;;;;6.17;100.00;100206.78;5064887;28;20103;-80
2023/12/08 10:33:50;;;;;;;21.13;12.00;;;;;;;6.48;100.00;100197.72;5087183;28;20032;-80
2023/12/08 10:36:16;;;;;;;17.27;10.35;;;;;;;6.47;100.00;100182.84;5055551;28;20496;-82
2023/12/08 10:38:42;;;;;;;16.65;9.48;;;;;;;6.37;100.00;100193.72;5060422;28;20115;-80
2023/12/08 10:41:10;;;;;;;16.45;10.07;;;;;;;6.05;100.00;100168.56;5075445;28;20138;-79
2023/12/08 10:43:39;;;;;;;16.77;10.18;;;;;;;6.13;100.00;100189.63;5093662;28;20020;-79
2023/12/08 10:46:06;;;;;;;17.85;9.95;;;;;;;6.07;100.00;100161.25;5093411;28;20043;-80
2023/12/08 10:48:33;;;;;;;18.98;10.32;;;;;;;6.16;100.00;100170.69;5093218;28;20032;-79
2023/12/08 10:50:58;;;;;;;19.77;10.90;;;;;;;6.23;100.00;100154.88;5093569;28;20020;-81
2023/12/08 10:53:25;;;;;;;18.48;11.30;;;;;;;6.36;100.00;100168.28;5092154;28;20040;-80
2023/12/08 10:55:58;;;;;;;19.27;11.55;;;;;;;6.15;100.00;100155.00;5091724;28;20468;-80
2023/12/08 10:58:24;;;;;;;19.65;11.20;;;;;;;6.18;100.00;100157.28;5091380;28;20047;-79
2023/12/08 11:00:52;;;;;;;19.42;11.40;;;;;;;6.17;100.00;100153.81;5091451;28;20046;-83
2023/12/08 11:03:20;;;;;;;21.88;11.68;;;;;;;5.93;100.00;100139.06;5091116;28;20055;-79
2023/12/08 11:05:49;;;;;;;21.77;11.85;;;;;;;6.30;100.00;100155.78;5091629;28;20491;-81
2023/12/08 11:08:18;;;;;;;18.38;11.13;;;;;;;6.16;100.00;100159.28;5089581;28;20032;-81
2023/12/08 11:10:52;;;;;;;23.83;13.30;;;;;;;6.11;100.00;100151.94;5091463;28;20032;-79
2023/12/08 11:13:28;;;;;;;21.95;11.95;;;;;;;5.89;100.00;100137.00;5091532;28;20024;-80